Time;durP1;ratioP1;P1;durP2;ratioP2;P2;SDS_P1;SDS_P2;PMS_P1;PMS_P2;Temp;Humidity;BMP_temperature;BMP_pressure;BME280_temperature;BME280_humidity;BME280_pressure;Samples;Min_cycle;Max_cycle;Signal;HPM_P1;HPM_P2
2023/01/08 00:01:39;;;;;;;;;5.50;3.00;;;;;22.27;50.16;99910.03;5075050;27;47120;-75
2023/01/08 00:04:04;;;;;;;;;3.00;2.00;;;;;22.26;50.24;99908.31;5057622;28;45479;-75
2023/01/08 00:06:30;;;;;;;;;4.00;3.00;;;;;22.27;49.91;99916.19;5071503;27;57957;-74
2023/01/08 00:08:55;;;;;;;;;4.50;3.50;;;;;22.28;49.80;99906.38;5054885;28;45576;-74
2023/01/08 00:11:20;;;;;;;;;5.00;3.00;;;;;22.26;50.08;99900.31;5057726;28;46835;-74
2023/01/08 00:13:46;;;;;;;;;3.00;3.00;;;;;22.28;50.23;99904.56;5051572;28;45412;-74
2023/01/08 00:16:14;;;;;;;;;4.75;2.00;;;;;22.29;49.79;99894.72;5071706;27;45436;-74
2023/01/08 00:18:39;;;;;;;;;3.00;2.25;;;;;22.28;50.06;99903.72;5055413;28;45777;-74
2023/01/08 00:21:05;;;;;;;;;3.25;2.50;;;;;22.26;50.32;99893.16;5056371;28;48033;-74
2023/01/08 00:23:30;;;;;;;;;3.00;2.50;;;;;22.28;49.69;99888.56;5071353;27;45480;-74
2023/01/08 00:25:56;;;;;;;;;3.25;2.75;;;;;22.27;50.15;99886.03;5038378;28;45532;-74
2023/01/08 00:28:21;;;;;;;;;4.00;2.00;;;;;22.30;49.92;99885.78;5051538;28;45497;-74
2023/01/08 00:30:47;;;;;;;;;2.50;2.00;;;;;22.26;50.16;99887.00;5037759;28;47225;-74
2023/01/08 00:33:14;;;;;;;;;4.00;3.50;;;;;22.29;49.82;99892.94;5056789;28;45488;-74
2023/01/08 00:35:39;;;;;;;;;1.25;1.25;;;;;22.27;49.61;99907.34;5037902;28;45514;-74
2023/01/08 00:38:05;;;;;;;;;1.00;1.00;;;;;22.26;49.94;99895.84;5055159;28;56456;-74
2023/01/08 00:40:33;;;;;;;;;3.00;2.75;;;;;22.25;49.90;99893.31;5056041;28;47200;-74
2023/01/08 00:42:58;;;;;;;;;6.50;3.75;;;;;22.25;49.90;99894.13;5056495;28;45404;-74
2023/01/08 00:45:23;;;;;;;;;5.00;3.00;;;;;22.24;49.86;99889.81;5039453;28;45457;-74
2023/01/08 00:47:49;;;;;;;;;3.25;2.50;;;;;22.26;49.49;99890.50;5072087;27;45520;-75
2023/01/08 00:50:15;;;;;;;;;4.00;3.00;;;;;22.26;49.60;99892.34;5074175;28;47501;-74
2023/01/08 00:52:41;;;;;;;;;1.50;1.00;;;;;22.23;49.43;99881.94;5073150;27;45508;-75
2023/01/08 00:55:06;;;;;;;;;4.00;1.25;;;;;22.22;49.87;99873.06;5058556;28;45419;-74
2023/01/08 00:57:36;;;;;;;;;2.00;2.00;;;;;22.26;49.50;99869.19;5056240;28;45269;-74
2023/01/08 01:00:03;;;;;;;;;2.00;2.00;;;;;22.24;49.62;99860.47;5040567;28;47201;-74
2023/01/08 01:02:28;;;;;;;;;2.00;2.00;;;;;22.21;49.72;99851.91;5057315;28;45810;-74
2023/01/08 01:04:54;;;;;;;;;6.50;2.50;;;;;22.23;49.51;99863.28;5055214;28;58291;-74
2023/01/08 01:07:19;;;;;;;;;5.75;2.25;;;;;22.23;49.32;99866.78;5053628;28;45466;-74
2023/01/08 01:09:45;;;;;;;;;2.50;1.75;;;;;22.26;49.88;99858.50;5072529;27;46203;-74
2023/01/08 01:12:10;;;;;;;;;3.00;3.00;;;;;22.23;49.72;99853.44;5055585;28;58332;-74
2023/01/08 01:14:38;;;;;;;;;2.75;2.00;;;;;22.24;49.38;99846.28;5056954;28;45396;-74
2023/01/08 01:17:04;;;;;;;;;3.50;1.00;;;;;22.23;49.31;99845.47;5053987;28;45746;-74
2023/01/08 01:19:29;;;;;;;;;4.00;3.00;;;;;22.24;49.24;99844.50;5054047;28;60797;-74
2023/01/08 01:21:55;;;;;;;;;3.75;2.00;;;;;22.21;49.51;99852.75;5055194;28;49408;-75
2023/01/08 01:24:23;;;;;;;;;5.75;2.25;;;;;22.20;49.72;99845.72;5039815;28;45529;-74
2023/01/08 01:26:49;;;;;;;;;2.75;2.75;;;;;22.19;49.40;99849.41;5086947;27;45498;-74
2023/01/08 01:29:15;;;;;;;;;4.00;1.25;;;;;22.19;49.28;99844.06;5050104;28;45308;-75
2023/01/08 01:31:40;;;;;;;;;2.25;1.50;;;;;22.21;49.21;99851.91;5049262;28;66902;-75
2023/01/08 01:34:05;;;;;;;;;2.00;1.75;;;;;22.19;49.35;99842.22;5037239;28;45446;-75
2023/01/08 01:36:31;;;;;;;;;1.75;1.50;;;;;22.16;49.10;99853.16;5041064;28;63651;-75
2023/01/08 01:38:57;;;;;;;;;2.00;1.50;;;;;22.18;49.69;99847.69;5038554;28;45996;-75
2023/01/08 01:41:36;;;;;;;;;4.75;2.00;;;;;22.20;49.78;99851.06;5059716;28;45316;-76
2023/01/08 01:44:39;;;;;;;;;3.25;3.00;;;;;22.21;49.16;99862.59;5056583;28;45491;-75
2023/01/08 01:47:21;;;;;;;;;5.00;2.00;;;;;22.22;49.69;99866.91;5057648;28;45387;-75
2023/01/08 01:50:03;;;;;;;;;1.75;1.75;;;;;22.18;49.54;99869.00;5037855;28;48801;-75
2023/01/08 01:52:30;;;;;;;;;1.50;1.00;;;;;22.20;49.16;99867.03;5072993;27;45620;-75
2023/01/08 01:54:58;;;;;;;;;1.25;1.25;;;;;22.21;49.31;99863.41;5092470;27;45345;-75
2023/01/08 01:57:25;;;;;;;;;2.00;2.00;;;;;22.17;49.63;99865.50;5058787;28;45500;-75
2023/01/08 01:59:52;;;;;;;;;2.00;2.00;;;;;22.21;49.75;99871.41;5090930;27;47027;-76
2023/01/08 02:02:17;;;;;;;;;2.25;1.75;;;;;22.19;49.28;99870.72;5073851;27;56444;-76
2023/01/08 02:04:43;;;;;;;;;1.50;1.50;;;;;22.17;49.52;99870.00;5057822;28;45524;-75
2023/01/08 02:07:16;;;;;;;;;2.00;1.00;;;;;22.16;49.49;99870.97;5059765;28;45944;-74
2023/01/08 02:10:15;;;;;;;;;2.00;2.00;;;;;22.21;49.36;99878.56;5040362;28;46119;-74
2023/01/08 02:12:44;;;;;;;;;4.00;2.00;;;;;22.21;49.39;99886.56;5056568;28;45526;-73
2023/01/08 02:15:15;;;;;;;;;2.00;2.00;;;;;22.19;49.20;99882.22;5059223;28;45374;-74
2023/01/08 02:18:18;;;;;;;;;2.25;2.25;;;;;22.19;49.64;99878.72;5074342;27;45332;-74
2023/01/08 02:20:55;;;;;;;;;3.00;1.25;;;;;22.19;49.59;99882.22;5057012;28;47079;-74
2023/01/08 02:23:33;;;;;;;;;3.25;1.00;;;;;22.19;49.75;99874.22;5057475;28;45613;-75
2023/01/08 02:26:30;;;;;;;;;5.50;1.25;;;;;22.19;49.78;99879.53;5056353;28;45399;-75
2023/01/08 02:29:13;;;;;;;;;5.75;1.00;;;;;22.19;49.43;99876.88;5072957;27;45578;-74
2023/01/08 02:31:40;;;;;;;;;4.00;2.00;;;;;22.19;49.15;99881.38;5064235;27;47110;-74
2023/01/08 02:34:06;;;;;;;;;2.00;2.00;;;;;22.19;49.35;99870.72;5075513;27;45945;-74
2023/01/08 02:36:35;;;;;;;;;3.75;2.00;;;;;22.13;49.56;99874.78;5057808;28;47293;-74
2023/01/08 02:39:15;;;;;;;;;1.50;1.50;;;;;22.20;49.07;99877.72;5039174;28;45507;-74
2023/01/08 02:41:59;;;;;;;;;1.50;1.25;;;;;22.19;49.56;99881.38;5091707;27;47219;-74
2023/01/08 02:44:35;;;;;;;;;0.25;0.00;;;;;22.19;49.21;99868.03;5059952;28;45449;-74
2023/01/08 02:47:05;;;;;;;;;2.50;2.00;;;;;22.19;49.13;99874.22;5074526;27;45454;-74
2023/01/08 02:49:33;;;;;;;;;3.25;1.50;;;;;22.19;49.52;99879.53;5088960;27;45606;-75
2023/01/08 02:51:59;;;;;;;;;1.50;1.00;;;;;22.16;49.22;99863.81;5058473;28;45567;-75
2023/01/08 02:54:28;;;;;;;;;3.00;1.00;;;;;22.16;48.87;99863.81;5039774;28;45636;-74
2023/01/08 02:57:01;;;;;;;;;1.00;1.00;;;;;22.18;49.09;99869.00;5059400;28;45578;-75
2023/01/08 02:59:29;;;;;;;;;4.75;1.00;;;;;22.18;48.83;99866.34;5056359;28;45612;-75
2023/01/08 03:01:55;;;;;;;;;3.25;1.00;;;;;22.14;49.10;99860.44;5057053;28;47305;-74
2023/01/08 03:04:22;;;;;;;;;2.00;1.00;;;;;22.15;49.29;99855.97;5073365;27;49089;-75
2023/01/08 03:06:48;;;;;;;;;0.75;0.00;;;;;22.13;49.30;99858.78;5071523;27;45679;-75
2023/01/08 03:09:14;;;;;;;;;2.25;1.25;;;;;22.12;49.06;99854.44;5056598;28;45563;-75
2023/01/08 03:11:58;;;;;;;;;3.50;2.00;;;;;22.13;48.82;99858.78;5060339;28;66325;-75
2023/01/08 03:14:27;;;;;;;;;3.00;1.50;;;;;22.13;49.12;99848.13;5091085;27;45484;-75
2023/01/08 03:17:00;;;;;;;;;1.00;1.00;;;;;22.10;49.42;99842.22;5040886;28;45641;-75
2023/01/08 03:19:33;;;;;;;;;2.75;1.00;;;;;22.13;48.79;99844.59;5055580;28;45556;-75
2023/01/08 03:22:00;;;;;;;;;1.00;1.00;;;;;22.10;48.97;99836.91;5038886;28;48211;-75
2023/01/08 03:24:28;;;;;;;;;0.50;0.25;;;;;22.11;49.19;99828.75;5056365;28;45750;-74
2023/01/08 03:26:58;;;;;;;;;3.00;2.75;;;;;22.11;49.01;99834.06;5072021;27;45562;-75
2023/01/08 03:29:24;;;;;;;;;3.25;1.00;;;;;22.12;49.11;99838.44;5046807;28;45509;-74
2023/01/08 03:31:52;;;;;;;;;1.00;1.00;;;;;22.11;49.13;99828.75;5079089;27;47300;-75
2023/01/08 03:34:20;;;;;;;;;0.25;0.25;;;;;22.11;48.80;99834.06;5055867;28;45634;-74
2023/01/08 03:36:47;;;;;;;;;5.50;2.00;;;;;22.09;49.27;99824.53;5056158;28;45360;-75
2023/01/08 03:39:25;;;;;;;;;4.00;1.00;;;;;22.12;49.40;99834.94;5073010;27;45463;-75
2023/01/08 03:41:52;;;;;;;;;2.00;1.00;;;;;22.09;48.92;99837.88;5073746;27;45564;-75
2023/01/08 03:44:18;;;;;;;;;2.25;0.50;;;;;22.10;48.78;99835.06;5075993;27;45857;-75
2023/01/08 03:46:48;;;;;;;;;1.75;0.75;;;;;22.12;49.16;99829.59;5038918;28;55103;-75
2023/01/08 03:49:14;;;;;;;;;1.00;1.00;;;;;22.09;48.96;99828.03;5056704;28;46172;-75
2023/01/08 03:51:41;;;;;;;;;2.75;1.00;;;;;22.09;48.95;99822.72;5067690;28;45564;-74
2023/01/08 03:54:09;;;;;;;;;2.75;1.50;;;;;22.09;49.36;99821.88;5074564;27;46107;-75
2023/01/08 03:56:35;;;;;;;;;2.00;0.50;;;;;22.09;49.09;99827.22;5037541;28;45555;-74
2023/01/08 03:59:00;;;;;;;;;2.00;1.00;;;;;22.09;49.00;99833.38;5056946;28;59004;-74
2023/01/08 04:01:25;;;;;;;;;2.75;1.00;;;;;22.07;48.96;99813.19;5072546;27;67220;-75
2023/01/08 04:03:51;;;;;;;;;1.00;1.00;;;;;22.09;48.72;99814.72;5055818;28;63053;-75
2023/01/08 04:06:16;;;;;;;;;2.00;1.00;;;;;22.07;48.68;99818.50;5072900;27;59870;-75
2023/01/08 04:08:41;;;;;;;;;0.75;0.75;;;;;22.05;48.75;99812.50;5089596;27;45662;-75
2023/01/08 04:11:07;;;;;;;;;1.00;1.00;;;;;22.03;48.60;99795.78;5056854;28;46403;-75
2023/01/08 04:13:32;;;;;;;;;2.00;1.00;;;;;21.99;48.92;99771.22;5089583;27;52491;-76
2023/01/08 04:15:57;;;;;;;;;2.75;1.00;;;;;22.06;48.45;99795.50;5090331;27;54819;-75
2023/01/08 04:18:23;;;;;;;;;1.00;1.00;;;;;22.07;48.55;99786.53;5069825;27;59390;-75
2023/01/08 04:20:48;;;;;;;;;2.50;1.00;;;;;22.01;48.80;99771.97;5051653;28;52971;-75
2023/01/08 04:23:14;;;;;;;;;2.25;1.00;;;;;22.07;48.81;99791.88;5088735;27;64715;-75
2023/01/08 04:25:39;;;;;;;;;0.25;0.25;;;;;22.06;48.95;99771.53;5088488;27;45477;-75
2023/01/08 04:28:05;;;;;;;;;2.00;1.00;;;;;22.04;48.62;99773.50;5038461;28;45449;-75
2023/01/08 04:30:30;;;;;;;;;2.00;0.00;;;;;21.99;49.04;99768.56;5054631;28;68322;-75
2023/01/08 04:32:55;;;;;;;;;1.00;0.00;;;;;22.04;48.66;99779.66;5038787;28;61367;-75
2023/01/08 04:35:21;;;;;;;;;3.25;1.00;;;;;22.03;48.91;99769.13;5055602;28;45569;-75
2023/01/08 04:37:46;;;;;;;;;1.00;1.00;;;;;21.95;48.75;99752.03;5037376;28;45526;-75
2023/01/08 04:40:11;;;;;;;;;5.00;0.25;;;;;22.02;48.47;99762.13;5049618;28;68789;-74
2023/01/08 04:42:37;;;;;;;;;2.00;1.00;;;;;21.98;48.65;99754.41;5090276;27;60911;-76
2023/01/08 04:45:03;;;;;;;;;0.25;0.25;;;;;22.00;48.75;99754.28;5071278;27;45437;-75
2023/01/08 04:47:28;;;;;;;;;0.75;0.00;;;;;22.01;48.80;99758.63;5056528;27;45196;-74
2023/01/08 04:49:54;;;;;;;;;1.00;1.00;;;;;22.00;49.01;99751.63;5088677;27;67588;-75
2023/01/08 04:52:19;;;;;;;;;5.00;1.00;;;;;22.00;49.00;99739.13;5055605;28;65253;-74
2023/01/08 04:54:44;;;;;;;;;2.00;0.75;;;;;22.00;48.75;99746.28;5089746;27;45698;-74
2023/01/08 04:57:10;;;;;;;;;3.00;1.75;;;;;21.98;48.79;99729.59;5056453;28;57715;-74
2023/01/08 04:59:35;;;;;;;;;0.25;0.25;;;;;21.98;48.80;99742.91;5058303;28;56360;-75
2023/01/08 05:02:00;;;;;;;;;1.00;1.00;;;;;21.95;48.90;99741.38;5058192;28;55734;-74
2023/01/08 05:04:26;;;;;;;;;1.00;0.00;;;;;21.99;48.92;99733.94;5055463;28;45413;-74
2023/01/08 05:06:51;;;;;;;;;3.75;1.00;;;;;21.98;48.59;99734.94;5092583;27;45483;-74
2023/01/08 05:09:16;;;;;;;;;0.75;0.00;;;;;21.99;48.47;99736.59;5037165;28;56481;-74
2023/01/08 05:11:42;;;;;;;;;0.75;0.25;;;;;21.96;48.64;99729.75;5094477;27;45242;-75
2023/01/08 05:14:07;;;;;;;;;0.50;0.50;;;;;22.00;48.44;99732.97;5057846;28;45459;-75
2023/01/08 05:16:33;;;;;;;;;1.00;1.00;;;;;21.97;48.34;99722.56;5059567;28;61930;-75
2023/01/08 05:18:58;;;;;;;;;1.00;0.50;;;;;21.96;48.41;99727.06;5039543;28;47458;-75
2023/01/08 05:21:24;;;;;;;;;1.25;0.00;;;;;22.00;48.94;99728.47;5075063;27;46919;-76
2023/01/08 05:23:49;;;;;;;;;1.00;0.00;;;;;21.96;48.87;99720.91;5059343;28;45502;-75
2023/01/08 05:26:15;;;;;;;;;0.50;0.50;;;;;21.99;48.49;99732.13;5078552;27;45651;-75
2023/01/08 05:28:41;;;;;;;;;3.50;1.00;;;;;21.97;48.40;99717.25;5075882;28;45509;-75
2023/01/08 05:31:06;;;;;;;;;2.00;1.00;;;;;21.97;48.79;99711.94;5056182;28;46937;-75
2023/01/08 05:33:32;;;;;;;;;1.00;1.00;;;;;21.98;48.70;99714.44;5058748;28;45703;-76
2023/01/08 05:35:57;;;;;;;;;0.50;0.00;;;;;21.94;48.53;99715.72;5075778;28;45722;-76
2023/01/08 05:38:22;;;;;;;;;1.25;0.25;;;;;21.96;48.92;99718.25;5074708;27;51756;-76
2023/01/08 05:40:51;;;;;;;;;0.75;0.75;;;;;21.96;48.73;99727.06;5057465;28;45727;-76
2023/01/08 05:43:16;;;;;;;;;1.75;1.00;;;;;21.97;48.71;99758.06;5093131;27;45501;-76
2023/01/08 05:45:42;;;;;;;;;0.00;0.00;;;;;21.94;48.54;99798.31;5056428;28;45606;-76
2023/01/08 05:48:07;;;;;;;;;1.75;0.25;;;;;21.94;48.85;99774.31;5039541;28;54653;-76
2023/01/08 05:50:33;;;;;;;;;0.00;0.00;;;;;21.94;48.77;99776.16;5055928;28;62252;-76
2023/01/08 05:52:58;;;;;;;;;0.25;0.00;;;;;21.89;48.38;99770.41;5037812;28;45629;-76
2023/01/08 05:55:24;;;;;;;;;0.75;0.75;;;;;21.91;48.63;99760.44;5057522;28;59561;-76
2023/01/08 05:57:49;;;;;;;;;0.75;0.25;;;;;21.88;49.00;99752.72;5056618;28;45894;-74
2023/01/08 06:00:15;;;;;;;;;0.00;0.00;;;;;21.89;49.00;99757.91;5092001;27;45593;-75
2023/01/08 06:02:45;;;;;;;;;1.00;1.00;;;;;21.92;48.86;99754.13;5092125;27;45503;-75
2023/01/08 06:05:10;;;;;;;;;0.50;0.50;;;;;21.91;48.95;99745.28;5071208;27;45421;-75
2023/01/08 06:07:35;;;;;;;;;0.00;0.00;;;;;21.88;48.57;99742.91;5072983;28;61898;-76
2023/01/08 06:10:01;;;;;;;;;0.50;0.50;;;;;21.92;48.84;99746.13;5039802;28;66145;-76
2023/01/08 06:12:26;;;;;;;;;0.00;0.00;;;;;21.93;48.85;99742.50;5075111;28;45427;-76
2023/01/08 06:14:52;;;;;;;;;0.00;0.00;;;;;21.93;48.47;99747.81;5057660;28;45549;-76
2023/01/08 06:17:17;;;;;;;;;0.00;0.00;;;;;21.89;48.93;99735.78;5057457;28;52599;-75
2023/01/08 06:19:42;;;;;;;;;0.00;0.00;;;;;21.91;48.86;99744.47;5072300;27;71451;-75
2023/01/08 06:22:08;;;;;;;;;0.00;0.00;;;;;21.92;48.65;99747.00;5059308;28;55148;-74
2023/01/08 06:24:33;;;;;;;;;1.50;0.50;;;;;21.90;48.61;99751.63;5055566;28;45423;-75
2023/01/08 06:26:58;;;;;;;;;0.25;0.00;;;;;21.89;49.08;99747.25;5037101;28;56925;-75
2023/01/08 06:29:24;;;;;;;;;0.00;0.00;;;;;21.93;48.89;99753.97;5058136;28;45457;-75
2023/01/08 06:31:49;;;;;;;;;0.00;0.00;;;;;21.90;48.70;99750.75;5058049;28;45497;-75
2023/01/08 06:34:14;;;;;;;;;0.00;0.00;;;;;21.89;48.58;99747.25;5058235;28;45502;-73
2023/01/08 06:36:40;;;;;;;;;0.75;0.75;;;;;21.91;49.03;99750.63;5058509;28;45477;-74
2023/01/08 06:39:06;;;;;;;;;1.00;0.00;;;;;21.89;48.54;99749.09;5056573;28;48015;-74
2023/01/08 06:41:32;;;;;;;;;0.00;0.00;;;;;21.90;48.78;99751.63;5059151;28;45438;-74
2023/01/08 06:43:57;;;;;;;;;2.50;0.00;;;;;21.93;48.63;99761.16;5055049;28;45548;-74
2023/01/08 06:46:22;;;;;;;;;0.00;0.00;;;;;21.92;48.67;99757.66;5058375;28;46554;-76
2023/01/08 06:48:48;;;;;;;;;0.00;0.00;;;;;21.94;48.73;99765.50;5070525;27;47746;-76
2023/01/08 06:51:13;;;;;;;;;0.00;0.00;;;;;21.93;48.53;99763.81;5075090;27;54772;-76
2023/01/08 06:53:39;;;;;;;;;0.00;0.00;;;;;21.83;49.02;99744.31;5062723;28;54189;-77
2023/01/08 06:56:06;;;;;;;;;1.75;0.00;;;;;21.89;49.04;99760.56;5061252;28;51446;-77
2023/01/08 06:58:31;;;;;;;;;0.50;0.50;;;;;21.90;48.48;99762.28;5036937;28;45630;-77
2023/01/08 07:00:58;;;;;;;;;0.00;0.00;;;;;21.84;48.83;99752.16;5059687;28;45260;-77
2023/01/08 07:03:23;;;;;;;;;0.50;0.00;;;;;21.89;49.00;99757.09;5053221;28;45269;-77
2023/01/08 07:05:49;;;;;;;;;0.00;0.00;;;;;21.87;48.95;99765.22;5075317;28;47261;-78
2023/01/08 07:08:16;;;;;;;;;0.75;0.00;;;;;21.85;48.77;99756.53;5073173;27;45415;-77
2023/01/08 07:10:42;;;;;;;;;1.25;0.00;;;;;21.86;48.86;99758.19;5074600;27;45391;-77
2023/01/08 07:13:08;;;;;;;;;0.00;0.00;;;;;21.80;48.87;99753.44;5074544;28;45350;-75
2023/01/08 07:15:35;;;;;;;;;0.25;0.00;;;;;21.84;48.73;99764.66;5074177;27;46691;-76
2023/01/08 07:18:04;;;;;;;;;1.75;0.00;;;;;21.83;48.53;99757.63;5058550;28;45503;-77
2023/01/08 07:20:30;;;;;;;;;0.25;0.00;;;;;21.84;48.85;99761.97;5039682;28;45353;-78
2023/01/08 07:23:03;;;;;;;;;0.00;0.00;;;;;21.82;49.12;99754.13;5058994;28;45378;-75
2023/01/08 07:25:28;;;;;;;;;0.00;0.00;;;;;21.85;49.11;99768.97;5061387;28;47980;-76
2023/01/08 07:27:53;;;;;;;;;0.00;0.00;;;;;21.82;48.97;99759.44;5076651;27;45645;-76
2023/01/08 07:30:19;;;;;;;;;0.00;0.00;;;;;21.81;48.71;99760.41;5066046;28;45509;-76
2023/01/08 07:32:44;;;;;;;;;0.00;0.00;;;;;21.82;48.83;99763.94;5072989;28;44805;-75
2023/01/08 07:35:09;;;;;;;;;0.00;0.00;;;;;21.81;48.83;99755.09;5073548;28;47378;-76
2023/01/08 07:37:39;;;;;;;;;0.00;0.00;;;;;21.84;49.15;99761.97;5056051;28;57342;-75
2023/01/08 07:40:05;;;;;;;;;0.00;0.00;;;;;21.82;48.81;99762.13;5062516;28;45312;-77
2023/01/08 07:42:30;;;;;;;;;0.00;0.00;;;;;21.79;48.71;99754.38;5068387;28;45305;-77
2023/01/08 07:44:55;;;;;;;;;0.00;0.00;;;;;21.82;49.17;99755.94;5088404;27;51924;-77
2023/01/08 07:47:21;;;;;;;;;0.25;0.00;;;;;21.81;48.94;99752.44;5061665;28;45412;-77
2023/01/08 07:49:46;;;;;;;;;0.00;0.00;;;;;21.75;48.99;99740.50;5055351;28;58575;-77
2023/01/08 07:52:11;;;;;;;;;0.00;0.00;;;;;21.79;48.94;99738.41;5062680;28;63436;-77
2023/01/08 07:54:36;;;;;;;;;0.00;0.00;;;;;21.77;48.76;99746.53;5057962;28;62776;-78
2023/01/08 07:57:02;;;;;;;;;0.00;0.00;;;;;21.76;48.84;99744.00;5059177;28;45434;-77
2023/01/08 07:59:27;;;;;;;;;0.00;0.00;;;;;21.75;48.78;99745.84;5057161;28;45226;-76
2023/01/08 08:01:52;;;;;;;;;0.25;0.00;;;;;21.75;48.54;99737.84;5056104;28;64793;-77
2023/01/08 08:04:18;;;;;;;;;0.00;0.00;;;;;21.73;48.81;99739.81;5057580;28;51615;-76
2023/01/08 08:06:43;;;;;;;;;0.50;0.00;;;;;21.73;48.83;99742.47;5055820;28;45569;-75
2023/01/08 08:09:08;;;;;;;;;0.00;0.00;;;;;21.74;48.77;99732.66;5057928;28;59556;-76
2023/01/08 08:11:34;;;;;;;;;0.00;0.00;;;;;21.77;48.43;99737.72;5056458;28;56518;-75
2023/01/08 08:13:59;;;;;;;;;0.00;0.00;;;;;21.75;48.48;99727.19;5090283;27;50296;-76
2023/01/08 08:16:25;;;;;;;;;0.00;0.00;;;;;21.78;49.05;99734.91;5054876;28;51553;-75
2023/01/08 08:18:50;;;;;;;;;0.00;0.00;;;;;21.76;49.11;99722.69;5056932;28;52513;-72
2023/01/08 08:21:15;;;;;;;;;0.00;0.00;;;;;21.78;49.12;99720.75;5057653;28;45253;-73
2023/01/08 08:23:41;;;;;;;;;0.00;0.00;;;;;21.73;46.07;99729.16;5054776;28;47194;-79
2023/01/08 08:26:06;;;;;;;;;0.50;0.00;;;;;21.41;45.69;99721.38;5057352;28;51587;-82
2023/01/08 08:28:32;;;;;;;;;1.50;0.00;;;;;21.13;44.98;99715.81;5087524;27;45775;-81
2023/01/08 08:30:57;;;;;;;;;0.00;0.00;;;;;20.82;45.34;99709.63;5089756;27;45443;-75
2023/01/08 08:33:22;;;;;;;;;1.25;0.00;;;;;20.58;44.93;99710.75;5053610;28;48135;-74
2023/01/08 08:35:49;;;;;;;;;1.00;0.00;;;;;20.24;44.83;99703.00;5066668;27;61044;-75
2023/01/08 08:38:15;;;;;;;;;1.75;1.00;;;;;19.96;45.22;99700.94;5056633;28;45755;-76
2023/01/08 08:40:41;;;;;;;;;1.25;0.00;;;;;19.60;45.07;99684.38;5057474;28;45473;-78
2023/01/08 08:43:08;;;;;;;;;0.00;0.00;;;;;19.41;45.10;99687.69;5083271;27;45350;-81
2023/01/08 08:45:33;;;;;;;;;2.00;0.00;;;;;19.35;45.64;99703.16;5072953;28;46971;-79
2023/01/08 08:47:59;;;;;;;;;2.25;0.25;;;;;19.37;46.74;99692.41;5058758;28;45709;-83
2023/01/08 08:50:24;;;;;;;;;2.00;0.75;;;;;19.50;47.34;99703.72;5055749;28;45383;-81
2023/01/08 08:52:50;;;;;;;;;2.00;0.00;;;;;19.58;47.43;99679.19;5055380;28;46322;-79
2023/01/08 08:55:16;;;;;;;;;0.00;0.00;;;;;19.66;47.51;99678.59;5072233;27;45400;-83
2023/01/08 08:57:42;;;;;;;;;1.25;0.00;;;;;19.84;47.56;99676.25;5054008;28;45366;-77
2023/01/08 09:00:08;;;;;;;;;1.00;0.00;;;;;19.91;47.38;99686.22;5089899;27;45460;-80
2023/01/08 09:02:34;;;;;;;;;0.00;0.00;;;;;20.04;47.71;99683.41;5041561;28;48609;-76
2023/01/08 09:04:59;;;;;;;;;0.75;0.00;;;;;20.16;47.84;99680.69;5072886;27;47324;-76
2023/01/08 09:07:25;;;;;;;;;0.75;0.00;;;;;20.17;47.71;99677.03;5043759;28;48469;-78
2023/01/08 09:09:50;;;;;;;;;0.25;0.00;;;;;20.30;47.53;99683.03;5073485;27;48921;-84
2023/01/08 09:12:15;;;;;;;;;0.50;0.00;;;;;20.38;47.30;99696.50;5071048;27;47956;-80
2023/01/08 09:14:41;;;;;;;;;1.25;0.50;;;;;20.38;47.29;99675.25;5050201;28;52823;-80
2023/01/08 09:17:06;;;;;;;;;1.00;0.00;;;;;20.40;47.61;99675.13;5069854;28;45846;-82
2023/01/08 09:19:31;;;;;;;;;1.00;0.00;;;;;20.53;47.41;99673.09;5054820;28;45433;-77
2023/01/08 09:21:57;;;;;;;;;0.00;0.00;;;;;20.60;47.82;99684.03;5055126;28;47154;-75
2023/01/08 09:24:22;;;;;;;;;1.00;0.00;;;;;20.71;48.02;99678.66;5058166;28;45391;-84
2023/01/08 09:26:47;;;;;;;;;0.25;0.00;;;;;20.71;48.33;99675.16;5042672;28;45304;-75
2023/01/08 09:29:13;;;;;;;;;1.00;0.00;;;;;20.84;47.75;99686.41;5055619;28;45643;-76
2023/01/08 09:31:38;;;;;;;;;0.00;0.00;;;;;20.88;47.64;99685.19;5080076;27;65548;-87
2023/01/08 09:34:03;;;;;;;;;1.00;0.00;;;;;20.89;47.68;99676.22;5053354;28;45892;-76
2023/01/08 09:36:29;;;;;;;;;0.00;0.00;;;;;20.98;47.80;99685.22;5071226;27;58701;-75
2023/01/08 09:38:54;;;;;;;;;0.00;0.00;;;;;21.02;47.51;99682.16;5053670;28;45763;-78
2023/01/08 09:41:41;;;;;;;;;2.00;0.00;;;;;21.07;47.91;99681.78;5077832;27;47112;-76
2023/01/08 09:44:10;;;;;;;;;0.25;0.00;;;;;21.06;47.96;99677.41;5050228;28;45450;-76
2023/01/08 09:46:36;;;;;;;;;0.00;0.00;;;;;21.07;47.65;99670.25;5038291;28;45393;-81
2023/01/08 09:49:06;;;;;;;;;0.00;0.00;;;;;21.14;48.15;99674.94;5056446;28;45444;-75
2023/01/08 09:51:36;;;;;;;;;0.00;0.00;;;;;21.16;47.85;99683.63;5042528;28;46981;-82
2023/01/08 09:54:01;;;;;;;;;0.00;0.00;;;;;21.17;47.66;99682.63;5072918;27;45515;-82
2023/01/08 09:56:27;;;;;;;;;1.75;0.00;;;;;21.17;47.92;99676.47;5041979;28;46421;-81
2023/01/08 09:58:55;;;;;;;;;0.75;0.00;;;;;21.19;47.33;99671.84;5058201;28;52727;-82
2023/01/08 10:01:29;;;;;;;;;1.00;0.00;;;;;21.22;47.85;99680.41;5060554;28;47035;-75
2023/01/08 10:04:02;;;;;;;;;1.25;0.00;;;;;21.23;47.72;99681.25;5058998;28;45445;-76
2023/01/08 10:06:29;;;;;;;;;0.00;0.00;;;;;21.26;47.77;99682.78;5093719;27;45397;-77
2023/01/08 10:08:55;;;;;;;;;0.25;0.00;;;;;21.30;47.41;99686.84;5059564;28;45841;-75
2023/01/08 10:11:21;;;;;;;;;1.50;0.25;;;;;21.32;47.32;99688.41;5066016;28;45524;-75
2023/01/08 10:13:53;;;;;;;;;0.00;0.00;;;;;21.31;47.61;99678.75;5062254;28;45444;-74
2023/01/08 10:16:32;;;;;;;;;0.00;0.00;;;;;21.31;47.54;99672.59;5064284;28;45458;-75
2023/01/08 10:18:58;;;;;;;;;0.00;0.00;;;;;21.35;47.20;99677.47;5075454;27;45591;-74
2023/01/08 10:21:32;;;;;;;;;0.75;0.00;;;;;21.38;47.74;99682.53;5061339;28;45491;-74
2023/01/08 10:23:58;;;;;;;;;0.00;0.00;;;;;21.39;47.16;99676.25;5074479;27;45786;-75
2023/01/08 10:26:29;;;;;;;;;0.00;0.00;;;;;21.43;47.08;99687.47;5060478;28;47014;-76
2023/01/08 10:29:14;;;;;;;;;2.75;0.00;;;;;21.46;47.61;99679.25;5053511;28;45565;-75
2023/01/08 10:31:49;;;;;;;;;1.75;0.00;;;;;21.48;47.07;99684.41;5054931;28;47132;-74
2023/01/08 10:34:27;;;;;;;;;0.00;0.00;;;;;21.47;47.26;99685.41;5059858;28;45752;-75
2023/01/08 10:36:53;;;;;;;;;0.00;0.00;;;;;21.49;47.33;99672.78;5092532;27;45555;-89
2023/01/08 10:39:25;;;;;;;;;0.00;0.00;;;;;21.51;47.13;99671.66;5058484;28;45556;-82
2023/01/08 10:41:54;;;;;;;;;2.50;0.00;;;;;21.56;47.83;99666.75;5056410;28;47097;-81
2023/01/08 10:44:22;;;;;;;;;0.00;0.00;;;;;21.59;47.18;99653.19;5051530;28;45441;-83
2023/01/08 10:46:51;;;;;;;;;0.00;0.00;;;;;21.65;47.22;99657.09;5059664;28;45423;-78
2023/01/08 10:49:27;;;;;;;;;0.25;0.00;;;;;21.68;47.50;99650.66;5057451;28;46798;-79
2023/01/08 10:51:54;;;;;;;;;3.00;0.00;;;;;21.75;47.16;99654.47;5056424;28;45785;-79
2023/01/08 10:54:27;;;;;;;;;2.25;0.00;;;;;21.75;47.49;99647.31;5039192;28;45466;-79
2023/01/08 10:56:52;;;;;;;;;2.50;0.00;;;;;21.77;47.05;99636.50;5061344;28;46436;-78
2023/01/08 10:59:19;;;;;;;;;0.00;0.00;;;;;21.77;46.82;99641.84;5059295;28;45597;-82
2023/01/08 11:01:50;;;;;;;;;0.00;0.00;;;;;21.81;46.89;99643.22;5056879;28;45292;-84
2023/01/08 11:04:33;;;;;;;;;0.00;0.00;;;;;21.83;47.18;99640.44;5069418;27;45488;-85
2023/01/08 11:07:00;;;;;;;;;0.00;0.00;;;;;21.88;47.22;99640.84;5046699;28;45578;-85
2023/01/08 11:09:31;;;;;;;;;2.00;0.00;;;;;21.89;47.38;99643.38;5057348;28;45432;-85
2023/01/08 11:11:57;;;;;;;;;0.00;0.00;;;;;21.86;46.70;99624.16;5053293;28;45515;-85
2023/01/08 11:14:34;;;;;;;;;0.50;0.00;;;;;21.95;46.94;99623.31;5058071;28;45910;-86
2023/01/08 11:17:01;;;;;;;;;0.50;0.00;;;;;21.96;46.98;99627.69;5051784;28;45493;-80
2023/01/08 11:19:29;;;;;;;;;0.00;0.00;;;;;21.96;46.63;99620.50;5072723;27;45641;-76
2023/01/08 11:22:03;;;;;;;;;0.00;0.00;;;;;21.96;46.66;99612.53;5057451;28;48124;-78
2023/01/08 11:24:34;;;;;;;;;1.00;0.00;;;;;21.92;46.87;99603.16;5056310;28;45803;-78
2023/01/08 11:27:11;;;;;;;;;0.00;0.00;;;;;21.97;46.64;99608.03;5054142;28;45394;-80
2023/01/08 11:29:44;;;;;;;;;2.00;0.00;;;;;21.97;46.85;99600.03;5060098;28;45331;-78
2023/01/08 11:32:18;;;;;;;;;0.00;0.00;;;;;21.96;46.84;99599.22;5063220;28;45611;-78
2023/01/08 11:34:53;;;;;;;;;0.00;0.00;;;;;21.97;46.87;99586.72;5066747;28;45650;-78
2023/01/08 11:37:21;;;;;;;;;1.75;0.00;;;;;21.97;46.53;99576.06;5059782;28;45422;-78